sensor_id;sensor_type;location;lat;lon;timestamp;P1;durP1;ratioP1;P2;durP2;ratioP2
44078;SDS011;29744;49.078;12.878;2024-01-07T00:02:03;1.25;;;0.80;;
44078;SDS011;29744;49.078;12.878;2024-01-07T00:07:06;1.13;;;0.60;;
44078;SDS011;29744;49.078;12.878;2024-01-07T00:12:06;1.00;;;0.70;;
44078;SDS011;29744;49.078;12.878;2024-01-07T00:17:07;0.57;;;0.50;;
44078;SDS011;29744;49.078;12.878;2024-01-07T00:22:07;1.73;;;0.77;;
44078;SDS011;29744;49.078;12.878;2024-01-07T00:27:08;0.88;;;0.60;;
44078;SDS011;29744;49.078;12.878;2024-01-07T00:32:08;0.85;;;0.63;;
44078;SDS011;29744;49.078;12.878;2024-01-07T00:37:08;0.80;;;0.68;;
44078;SDS011;29744;49.078;12.878;2024-01-07T00:42:09;0.63;;;0.50;;
44078;SDS011;29744;49.078;12.878;2024-01-07T00:47:13;1.23;;;0.80;;
44078;SDS011;29744;49.078;12.878;2024-01-07T00:52:13;1.02;;;0.65;;
44078;SDS011;29744;49.078;12.878;2024-01-07T00:57:13;1.08;;;0.60;;
44078;SDS011;29744;49.078;12.878;2024-01-07T01:02:14;0.90;;;0.60;;
44078;SDS011;29744;49.078;12.878;2024-01-07T01:07:14;0.82;;;0.70;;
44078;SDS011;29744;49.078;12.878;2024-01-07T01:12:14;0.73;;;0.60;;
44078;SDS011;29744;49.078;12.878;2024-01-07T01:17:15;0.90;;;0.47;;
44078;SDS011;29744;49.078;12.878;2024-01-07T01:22:15;1.23;;;0.70;;
44078;SDS011;29744;49.078;12.878;2024-01-07T01:27:15;1.17;;;0.70;;
44078;SDS011;29744;49.078;12.878;2024-01-07T01:32:16;0.80;;;0.60;;
44078;SDS011;29744;49.078;12.878;2024-01-07T01:37:16;1.52;;;0.80;;
44078;SDS011;29744;49.078;12.878;2024-01-07T01:42:16;1.60;;;0.80;;
44078;SDS011;29744;49.078;12.878;2024-01-07T01:47:17;1.08;;;0.63;;
44078;SDS011;29744;49.078;12.878;2024-01-07T01:52:18;0.68;;;0.60;;
44078;SDS011;29744;49.078;12.878;2024-01-07T01:57:19;0.80;;;0.60;;
44078;SDS011;29744;49.078;12.878;2024-01-07T02:02:22;0.82;;;0.70;;
44078;SDS011;29744;49.078;12.878;2024-01-07T02:07:24;1.45;;;1.00;;
44078;SDS011;29744;49.078;12.878;2024-01-07T02:12:24;0.80;;;0.60;;
44078;SDS011;29744;49.078;12.878;2024-01-07T02:17:25;1.02;;;0.60;;
44078;SDS011;29744;49.078;12.878;2024-01-07T02:22:26;0.85;;;0.60;;
44078;SDS011;29744;49.078;12.878;2024-01-07T02:27:27;0.60;;;0.50;;
44078;SDS011;29744;49.078;12.878;2024-01-07T02:32:27;1.40;;;0.70;;
44078;SDS011;29744;49.078;12.878;2024-01-07T02:37:28;1.30;;;0.70;;
44078;SDS011;29744;49.078;12.878;2024-01-07T02:42:28;0.98;;;0.70;;
44078;SDS011;29744;49.078;12.878;2024-01-07T02:47:28;1.45;;;0.80;;
44078;SDS011;29744;49.078;12.878;2024-01-07T02:52:29;0.82;;;0.60;;
44078;SDS011;29744;49.078;12.878;2024-01-07T02:57:29;0.80;;;0.50;;
44078;SDS011;29744;49.078;12.878;2024-01-07T03:02:29;0.80;;;0.58;;
44078;SDS011;29744;49.078;12.878;2024-01-07T03:07:29;0.70;;;0.50;;
44078;SDS011;29744;49.078;12.878;2024-01-07T03:12:30;0.50;;;0.50;;
44078;SDS011;29744;49.078;12.878;2024-01-07T03:17:30;0.77;;;0.60;;
44078;SDS011;29744;49.078;12.878;2024-01-07T03:22:30;0.80;;;0.50;;
44078;SDS011;29744;49.078;12.878;2024-01-07T03:27:31;1.02;;;0.65;;
44078;SDS011;29744;49.078;12.878;2024-01-07T03:32:31;1.30;;;0.75;;
44078;SDS011;29744;49.078;12.878;2024-01-07T03:37:31;0.65;;;0.60;;
44078;SDS011;29744;49.078;12.878;2024-01-07T03:42:32;0.86;;;0.60;;
44078;SDS011;29744;49.078;12.878;2024-01-07T03:47:32;0.84;;;0.58;;
44078;SDS011;29744;49.078;12.878;2024-01-07T03:52:32;0.88;;;0.60;;
44078;SDS011;29744;49.078;12.878;2024-01-07T03:57:34;0.63;;;0.60;;
44078;SDS011;29744;49.078;12.878;2024-01-07T04:02:34;1.08;;;0.60;;
44078;SDS011;29744;49.078;12.878;2024-01-07T04:07:35;1.20;;;0.70;;
44078;SDS011;29744;49.078;12.878;2024-01-07T04:12:36;0.95;;;0.60;;
44078;SDS011;29744;49.078;12.878;2024-01-07T04:17:36;1.05;;;0.70;;
44078;SDS011;29744;49.078;12.878;2024-01-07T04:22:37;0.65;;;0.50;;
44078;SDS011;29744;49.078;12.878;2024-01-07T04:27:37;0.90;;;0.70;;
44078;SDS011;29744;49.078;12.878;2024-01-07T04:32:38;1.05;;;0.70;;
44078;SDS011;29744;49.078;12.878;2024-01-07T04:37:38;0.80;;;0.55;;
44078;SDS011;29744;49.078;12.878;2024-01-07T04:42:39;0.82;;;0.52;;
44078;SDS011;29744;49.078;12.878;2024-01-07T04:47:39;0.55;;;0.50;;
44078;SDS011;29744;49.078;12.878;2024-01-07T04:52:39;0.90;;;0.60;;
44078;SDS011;29744;49.078;12.878;2024-01-07T04:57:40;0.90;;;0.70;;
44078;SDS011;29744;49.078;12.878;2024-01-07T05:02:40;0.77;;;0.50;;
44078;SDS011;29744;49.078;12.878;2024-01-07T05:07:41;1.17;;;0.65;;
44078;SDS011;29744;49.078;12.878;2024-01-07T05:12:41;1.13;;;0.60;;
44078;SDS011;29744;49.078;12.878;2024-01-07T05:17:42;0.40;;;0.36;;
44078;SDS011;29744;49.078;12.878;2024-01-07T05:22:42;0.50;;;0.47;;
44078;SDS011;29744;49.078;12.878;2024-01-07T05:27:43;0.77;;;0.57;;
44078;SDS011;29744;49.078;12.878;2024-01-07T05:32:43;0.70;;;0.60;;
44078;SDS011;29744;49.078;12.878;2024-01-07T05:37:43;0.95;;;0.55;;
44078;SDS011;29744;49.078;12.878;2024-01-07T05:42:43;0.65;;;0.45;;
44078;SDS011;29744;49.078;12.878;2024-01-07T05:47:44;0.60;;;0.47;;
44078;SDS011;29744;49.078;12.878;2024-01-07T05:52:44;1.00;;;0.60;;
44078;SDS011;29744;49.078;12.878;2024-01-07T05:57:45;0.90;;;0.60;;
44078;SDS011;29744;49.078;12.878;2024-01-07T06:02:45;0.98;;;0.60;;
44078;SDS011;29744;49.078;12.878;2024-01-07T06:07:45;0.73;;;0.50;;
44078;SDS011;29744;49.078;12.878;2024-01-07T06:12:46;0.95;;;0.57;;
44078;SDS011;29744;49.078;12.878;2024-01-07T06:17:46;0.70;;;0.50;;
44078;SDS011;29744;49.078;12.878;2024-01-07T06:22:46;0.70;;;0.50;;
44078;SDS011;29744;49.078;12.878;2024-01-07T06:27:47;1.08;;;0.65;;
44078;SDS011;29744;49.078;12.878;2024-01-07T06:32:47;0.57;;;0.50;;
44078;SDS011;29744;49.078;12.878;2024-01-07T06:37:48;1.00;;;0.70;;
44078;SDS011;29744;49.078;12.878;2024-01-07T06:42:49;0.80;;;0.47;;
44078;SDS011;29744;49.078;12.878;2024-01-07T06:47:49;0.70;;;0.45;;
44078;SDS011;29744;49.078;12.878;2024-01-07T06:52:49;0.43;;;0.40;;
44078;SDS011;29744;49.078;12.878;2024-01-07T06:57:50;0.98;;;0.60;;
44078;SDS011;29744;49.078;12.878;2024-01-07T07:02:50;0.50;;;0.50;;
44078;SDS011;29744;49.078;12.878;2024-01-07T07:07:50;0.50;;;0.50;;
44078;SDS011;29744;49.078;12.878;2024-01-07T07:12:51;0.50;;;0.50;;
44078;SDS011;29744;49.078;12.878;2024-01-07T07:17:51;0.88;;;0.50;;
44078;SDS011;29744;49.078;12.878;2024-01-07T07:22:51;0.50;;;0.40;;
44078;SDS011;29744;49.078;12.878;2024-01-07T07:27:52;0.63;;;0.52;;
44078;SDS011;29744;49.078;12.878;2024-01-07T07:32:52;1.10;;;0.60;;
44078;SDS011;29744;49.078;12.878;2024-01-07T07:37:53;0.85;;;0.60;;
44078;SDS011;29744;49.078;12.878;2024-01-07T07:42:53;0.73;;;0.50;;
44078;SDS011;29744;49.078;12.878;2024-01-07T07:47:53;0.73;;;0.50;;
44078;SDS011;29744;49.078;12.878;2024-01-07T07:52:54;0.43;;;0.43;;
44078;SDS011;29744;49.078;12.878;2024-01-07T07:57:54;0.60;;;0.50;;
44078;SDS011;29744;49.078;12.878;2024-01-07T08:02:54;1.25;;;0.68;;
44078;SDS011;29744;49.078;12.878;2024-01-07T08:07:55;0.30;;;0.30;;
44078;SDS011;29744;49.078;12.878;2024-01-07T08:12:56;0.82;;;0.50;;
44078;SDS011;29744;49.078;12.878;2024-01-07T08:17:56;0.88;;;0.52;;
44078;SDS011;29744;49.078;12.878;2024-01-07T08:22:56;0.68;;;0.50;;
44078;SDS011;29744;49.078;12.878;2024-01-07T08:27:57;0.50;;;0.40;;
44078;SDS011;29744;49.078;12.878;2024-01-07T08:32:57;0.88;;;0.60;;
44078;SDS011;29744;49.078;12.878;2024-01-07T08:37:58;0.88;;;0.55;;
44078;SDS011;29744;49.078;12.878;2024-01-07T08:42:58;0.73;;;0.50;;
44078;SDS011;29744;49.078;12.878;2024-01-07T08:47:58;0.95;;;0.55;;
44078;SDS011;29744;49.078;12.878;2024-01-07T08:52:59;0.50;;;0.50;;
44078;SDS011;29744;49.078;12.878;2024-01-07T08:57:59;0.80;;;0.50;;
44078;SDS011;29744;49.078;12.878;2024-01-07T09:03:00;0.77;;;0.50;;
44078;SDS011;29744;49.078;12.878;2024-01-07T09:08:00;1.00;;;0.60;;
44078;SDS011;29744;49.078;12.878;2024-01-07T09:13:02;0.63;;;0.50;;
44078;SDS011;29744;49.078;12.878;2024-01-07T09:18:03;0.70;;;0.57;;
44078;SDS011;29744;49.078;12.878;2024-01-07T09:23:03;0.75;;;0.50;;
44078;SDS011;29744;49.078;12.878;2024-01-07T09:28:04;0.50;;;0.50;;
44078;SDS011;29744;49.078;12.878;2024-01-07T09:33:05;0.70;;;0.50;;
44078;SDS011;29744;49.078;12.878;2024-01-07T09:38:05;0.88;;;0.52;;
44078;SDS011;29744;49.078;12.878;2024-01-07T09:43:06;0.60;;;0.40;;
44078;SDS011;29744;49.078;12.878;2024-01-07T09:48:06;0.75;;;0.50;;
44078;SDS011;29744;49.078;12.878;2024-01-07T09:53:07;1.02;;;0.55;;
44078;SDS011;29744;49.078;12.878;2024-01-07T09:58:13;1.00;;;0.63;;
44078;SDS011;29744;49.078;12.878;2024-01-07T10:03:13;0.77;;;0.60;;
44078;SDS011;29744;49.078;12.878;2024-01-07T10:08:14;1.10;;;0.70;;
44078;SDS011;29744;49.078;12.878;2024-01-07T10:13:14;1.45;;;0.60;;
44078;SDS011;29744;49.078;12.878;2024-01-07T10:18:15;1.23;;;0.65;;
44078;SDS011;29744;49.078;12.878;2024-01-07T10:23:19;0.73;;;0.50;;
44078;SDS011;29744;49.078;12.878;2024-01-07T10:28:19;0.70;;;0.57;;
44078;SDS011;29744;49.078;12.878;2024-01-07T10:33:19;0.82;;;0.60;;
44078;SDS011;29744;49.078;12.878;2024-01-07T10:38:20;0.75;;;0.50;;
44078;SDS011;29744;49.078;12.878;2024-01-07T10:43:21;0.90;;;0.60;;
44078;SDS011;29744;49.078;12.878;2024-01-07T10:48:22;1.00;;;0.55;;
44078;SDS011;29744;49.078;12.878;2024-01-07T10:53:33;0.68;;;0.60;;
44078;SDS011;29744;49.078;12.878;2024-01-07T10:58:38;1.00;;;0.57;;
44078;SDS011;29744;49.078;12.878;2024-01-07T11:03:56;0.88;;;0.60;;
44078;SDS011;29744;49.078;12.878;2024-01-07T11:09:12;1.20;;;0.68;;
44078;SDS011;29744;49.078;12.878;2024-01-07T11:14:35;1.58;;;0.52;;
44078;SDS011;29744;49.078;12.878;2024-01-07T11:19:49;0.90;;;0.50;;
44078;SDS011;29744;49.078;12.878;2024-01-07T11:24:51;0.75;;;0.50;;
44078;SDS011;29744;49.078;12.878;2024-01-07T11:29:54;0.95;;;0.68;;
44078;SDS011;29744;49.078;12.878;2024-01-07T11:34:56;0.70;;;0.60;;
44078;SDS011;29744;49.078;12.878;2024-01-07T11:39:59;1.13;;;0.57;;
44078;SDS011;29744;49.078;12.878;2024-01-07T11:44:59;0.77;;;0.50;;
44078;SDS011;29744;49.078;12.878;2024-01-07T11:49:59;0.85;;;0.60;;
44078;SDS011;29744;49.078;12.878;2024-01-07T11:55:00;0.70;;;0.55;;
44078;SDS011;29744;49.078;12.878;2024-01-07T12:00:00;1.02;;;0.50;;
44078;SDS011;29744;49.078;12.878;2024-01-07T12:05:03;5.80;;;3.25;;
44078;SDS011;29744;49.078;12.878;2024-01-07T12:10:07;7.28;;;4.68;;
44078;SDS011;29744;49.078;12.878;2024-01-07T12:15:12;6.20;;;4.13;;
44078;SDS011;29744;49.078;12.878;2024-01-07T12:20:14;5.97;;;3.92;;
44078;SDS011;29744;49.078;12.878;2024-01-07T12:25:20;5.68;;;4.03;;
44078;SDS011;29744;49.078;12.878;2024-01-07T12:30:23;6.68;;;3.85;;
44078;SDS011;29744;49.078;12.878;2024-01-07T12:35:27;6.18;;;3.78;;
44078;SDS011;29744;49.078;12.878;2024-01-07T12:40:28;6.63;;;3.90;;
44078;SDS011;29744;49.078;12.878;2024-01-07T12:45:28;6.40;;;3.92;;
44078;SDS011;29744;49.078;12.878;2024-01-07T12:50:29;6.22;;;3.42;;
44078;SDS011;29744;49.078;12.878;2024-01-07T12:55:31;5.00;;;3.00;;
44078;SDS011;29744;49.078;12.878;2024-01-07T13:00:32;5.60;;;3.10;;
44078;SDS011;29744;49.078;12.878;2024-01-07T13:05:34;5.20;;;3.10;;
44078;SDS011;29744;49.078;12.878;2024-01-07T13:10:34;5.93;;;3.80;;
44078;SDS011;29744;49.078;12.878;2024-01-07T13:15:35;4.70;;;3.25;;
44078;SDS011;29744;49.078;12.878;2024-01-07T13:20:35;4.85;;;3.03;;
44078;SDS011;29744;49.078;12.878;2024-01-07T13:25:36;4.72;;;2.90;;
44078;SDS011;29744;49.078;12.878;2024-01-07T13:30:37;4.48;;;2.82;;
44078;SDS011;29744;49.078;12.878;2024-01-07T13:35:38;4.80;;;2.78;;
44078;SDS011;29744;49.078;12.878;2024-01-07T13:40:38;4.13;;;2.65;;
44078;SDS011;29744;49.078;12.878;2024-01-07T13:45:38;4.85;;;2.55;;
44078;SDS011;29744;49.078;12.878;2024-01-07T13:50:39;5.13;;;2.92;;
44078;SDS011;29744;49.078;12.878;2024-01-07T13:55:39;4.18;;;2.63;;
44078;SDS011;29744;49.078;12.878;2024-01-07T14:00:39;3.83;;;2.60;;
44078;SDS011;29744;49.078;12.878;2024-01-07T14:05:40;5.18;;;2.60;;
44078;SDS011;29744;49.078;12.878;2024-01-07T14:10:41;4.28;;;2.28;;
44078;SDS011;29744;49.078;12.878;2024-01-07T14:15:42;4.88;;;2.58;;
44078;SDS011;29744;49.078;12.878;2024-01-07T14:20:43;3.90;;;2.15;;
44078;SDS011;29744;49.078;12.878;2024-01-07T14:25:44;4.93;;;2.63;;
44078;SDS011;29744;49.078;12.878;2024-01-07T14:30:44;4.72;;;2.70;;
44078;SDS011;29744;49.078;12.878;2024-01-07T14:35:44;3.33;;;2.20;;
44078;SDS011;29744;49.078;12.878;2024-01-07T14:40:45;4.93;;;2.65;;
44078;SDS011;29744;49.078;12.878;2024-01-07T14:45:46;3.65;;;2.17;;
44078;SDS011;29744;49.078;12.878;2024-01-07T14:50:46;4.10;;;2.50;;
44078;SDS011;29744;49.078;12.878;2024-01-07T14:55:47;4.60;;;2.20;;
44078;SDS011;29744;49.078;12.878;2024-01-07T15:00:48;3.85;;;2.33;;
44078;SDS011;29744;49.078;12.878;2024-01-07T15:05:48;3.83;;;2.17;;
44078;SDS011;29744;49.078;12.878;2024-01-07T15:10:48;3.50;;;2.20;;
44078;SDS011;29744;49.078;12.878;2024-01-07T15:15:49;3.95;;;2.22;;
44078;SDS011;29744;49.078;12.878;2024-01-07T15:20:49;4.32;;;2.30;;
44078;SDS011;29744;49.078;12.878;2024-01-07T15:25:51;3.92;;;2.08;;
44078;SDS011;29744;49.078;12.878;2024-01-07T15:30:52;4.38;;;2.35;;
44078;SDS011;29744;49.078;12.878;2024-01-07T15:35:52;4.43;;;2.22;;
44078;SDS011;29744;49.078;12.878;2024-01-07T15:40:53;3.40;;;2.10;;
44078;SDS011;29744;49.078;12.878;2024-01-07T15:45:53;3.88;;;2.15;;
44078;SDS011;29744;49.078;12.878;2024-01-07T15:50:53;3.72;;;2.33;;
44078;SDS011;29744;49.078;12.878;2024-01-07T15:55:54;3.70;;;1.95;;
44078;SDS011;29744;49.078;12.878;2024-01-07T16:00:54;3.92;;;2.05;;
44078;SDS011;29744;49.078;12.878;2024-01-07T16:05:54;2.98;;;1.68;;
44078;SDS011;29744;49.078;12.878;2024-01-07T16:10:56;3.50;;;2.10;;
44078;SDS011;29744;49.078;12.878;2024-01-07T16:15:57;3.25;;;1.63;;
44078;SDS011;29744;49.078;12.878;2024-01-07T16:20:57;3.28;;;2.00;;
44078;SDS011;29744;49.078;12.878;2024-01-07T16:25:57;2.95;;;1.55;;
44078;SDS011;29744;49.078;12.878;2024-01-07T16:30:58;2.83;;;1.67;;
44078;SDS011;29744;49.078;12.878;2024-01-07T16:35:59;3.08;;;1.70;;
44078;SDS011;29744;49.078;12.878;2024-01-07T16:40:59;3.10;;;1.83;;
44078;SDS011;29744;49.078;12.878;2024-01-07T16:45:59;3.42;;;1.75;;
44078;SDS011;29744;49.078;12.878;2024-01-07T16:51:00;3.40;;;1.85;;
44078;SDS011;29744;49.078;12.878;2024-01-07T16:56:00;2.72;;;1.70;;
44078;SDS011;29744;49.078;12.878;2024-01-07T17:01:00;3.08;;;1.70;;
44078;SDS011;29744;49.078;12.878;2024-01-07T17:06:01;2.45;;;1.48;;
44078;SDS011;29744;49.078;12.878;2024-01-07T17:11:02;3.03;;;1.63;;
44078;SDS011;29744;49.078;12.878;2024-01-07T17:16:03;2.85;;;1.52;;
44078;SDS011;29744;49.078;12.878;2024-01-07T17:21:04;2.70;;;1.40;;
44078;SDS011;29744;49.078;12.878;2024-01-07T17:26:04;2.78;;;1.60;;
44078;SDS011;29744;49.078;12.878;2024-01-07T17:31:05;2.42;;;1.35;;
44078;SDS011;29744;49.078;12.878;2024-01-07T17:36:05;2.60;;;1.48;;
44078;SDS011;29744;49.078;12.878;2024-01-07T17:41:06;3.80;;;1.45;;
44078;SDS011;29744;49.078;12.878;2024-01-07T17:46:06;2.35;;;1.27;;
44078;SDS011;29744;49.078;12.878;2024-01-07T17:51:07;2.40;;;1.30;;
44078;SDS011;29744;49.078;12.878;2024-01-07T17:56:08;2.78;;;1.60;;
44078;SDS011;29744;49.078;12.878;2024-01-07T18:01:17;2.78;;;1.50;;
44078;SDS011;29744;49.078;12.878;2024-01-07T18:06:18;2.47;;;1.40;;
44078;SDS011;29744;49.078;12.878;2024-01-07T18:11:18;2.13;;;1.30;;
44078;SDS011;29744;49.078;12.878;2024-01-07T18:16:19;2.47;;;1.30;;
44078;SDS011;29744;49.078;12.878;2024-01-07T18:21:19;2.03;;;1.15;;
44078;SDS011;29744;49.078;12.878;2024-01-07T18:26:20;2.75;;;1.35;;
44078;SDS011;29744;49.078;12.878;2024-01-07T18:31:20;2.33;;;1.20;;
44078;SDS011;29744;49.078;12.878;2024-01-07T18:36:20;2.45;;;1.30;;
44078;SDS011;29744;49.078;12.878;2024-01-07T18:41:21;2.25;;;1.27;;
44078;SDS011;29744;49.078;12.878;2024-01-07T18:46:22;2.47;;;1.20;;
44078;SDS011;29744;49.078;12.878;2024-01-07T18:51:23;1.83;;;1.17;;
44078;SDS011;29744;49.078;12.878;2024-01-07T18:56:24;2.05;;;1.10;;
44078;SDS011;29744;49.078;12.878;2024-01-07T19:01:25;2.65;;;1.30;;
44078;SDS011;29744;49.078;12.878;2024-01-07T19:06:25;2.20;;;1.20;;
44078;SDS011;29744;49.078;12.878;2024-01-07T19:11:25;3.00;;;1.50;;
44078;SDS011;29744;49.078;12.878;2024-01-07T19:16:26;2.13;;;1.13;;
44078;SDS011;29744;49.078;12.878;2024-01-07T19:21:26;2.28;;;1.08;;
44078;SDS011;29744;49.078;12.878;2024-01-07T19:26:30;2.50;;;1.38;;
44078;SDS011;29744;49.078;12.878;2024-01-07T19:31:30;2.25;;;1.23;;
44078;SDS011;29744;49.078;12.878;2024-01-07T19:36:31;2.05;;;1.13;;
44078;SDS011;29744;49.078;12.878;2024-01-07T19:41:32;2.25;;;1.20;;
44078;SDS011;29744;49.078;12.878;2024-01-07T19:46:35;1.90;;;1.02;;
44078;SDS011;29744;49.078;12.878;2024-01-07T19:51:36;1.90;;;1.02;;
44078;SDS011;29744;49.078;12.878;2024-01-07T19:56:36;1.95;;;1.00;;
44078;SDS011;29744;49.078;12.878;2024-01-07T20:01:37;1.88;;;1.10;;
44078;SDS011;29744;49.078;12.878;2024-01-07T20:06:38;2.10;;;1.10;;
44078;SDS011;29744;49.078;12.878;2024-01-07T20:11:39;2.28;;;1.15;;
44078;SDS011;29744;49.078;12.878;2024-01-07T20:16:39;1.60;;;0.90;;
44078;SDS011;29744;49.078;12.878;2024-01-07T20:21:39;1.90;;;1.00;;
44078;SDS011;29744;49.078;12.878;2024-01-07T20:26:41;1.80;;;1.00;;
44078;SDS011;29744;49.078;12.878;2024-01-07T20:31:41;1.88;;;1.00;;
44078;SDS011;29744;49.078;12.878;2024-01-07T20:36:42;2.00;;;1.10;;
44078;SDS011;29744;49.078;12.878;2024-01-07T20:41:43;1.33;;;0.80;;
44078;SDS011;29744;49.078;12.878;2024-01-07T20:46:44;1.70;;;1.02;;
44078;SDS011;29744;49.078;12.878;2024-01-07T20:51:44;2.00;;;1.10;;
44078;SDS011;29744;49.078;12.878;2024-01-07T20:56:45;1.88;;;1.10;;
44078;SDS011;29744;49.078;12.878;2024-01-07T21:01:45;1.70;;;0.95;;
44078;SDS011;29744;49.078;12.878;2024-01-07T21:06:45;2.32;;;1.20;;
44078;SDS011;29744;49.078;12.878;2024-01-07T21:11:46;1.92;;;1.02;;
44078;SDS011;29744;49.078;12.878;2024-01-07T21:16:46;2.17;;;1.00;;
44078;SDS011;29744;49.078;12.878;2024-01-07T21:21:47;2.10;;;1.15;;
44078;SDS011;29744;49.078;12.878;2024-01-07T21:26:47;1.60;;;1.00;;
44078;SDS011;29744;49.078;12.878;2024-01-07T21:31:48;1.42;;;0.90;;
44078;SDS011;29744;49.078;12.878;2024-01-07T21:36:49;1.75;;;1.00;;
44078;SDS011;29744;49.078;12.878;2024-01-07T21:41:49;1.52;;;0.77;;
44078;SDS011;29744;49.078;12.878;2024-01-07T21:46:49;1.67;;;0.88;;
44078;SDS011;29744;49.078;12.878;2024-01-07T21:51:50;1.40;;;1.00;;
44078;SDS011;29744;49.078;12.878;2024-01-07T21:56:51;1.13;;;0.90;;
44078;SDS011;29744;49.078;12.878;2024-01-07T22:01:52;1.45;;;0.95;;
44078;SDS011;29744;49.078;12.878;2024-01-07T22:06:52;1.95;;;1.00;;
44078;SDS011;29744;49.078;12.878;2024-01-07T22:11:53;1.48;;;0.86;;
44078;SDS011;29744;49.078;12.878;2024-01-07T22:16:53;1.35;;;0.80;;
44078;SDS011;29744;49.078;12.878;2024-01-07T22:21:53;1.55;;;0.95;;
44078;SDS011;29744;49.078;12.878;2024-01-07T22:26:54;2.05;;;1.08;;
44078;SDS011;29744;49.078;12.878;2024-01-07T22:31:54;1.38;;;0.82;;
44078;SDS011;29744;49.078;12.878;2024-01-07T22:36:54;1.55;;;0.98;;
44078;SDS011;29744;49.078;12.878;2024-01-07T22:41:55;1.55;;;0.88;;
44078;SDS011;29744;49.078;12.878;2024-01-07T22:46:55;1.65;;;0.95;;
44078;SDS011;29744;49.078;12.878;2024-01-07T22:51:55;1.35;;;0.88;;
44078;SDS011;29744;49.078;12.878;2024-01-07T22:56:57;1.38;;;0.90;;
44078;SDS011;29744;49.078;12.878;2024-01-07T23:01:58;1.20;;;0.75;;
44078;SDS011;29744;49.078;12.878;2024-01-07T23:06:59;1.27;;;0.80;;
44078;SDS011;29744;49.078;12.878;2024-01-07T23:11:59;1.50;;;0.85;;
44078;SDS011;29744;49.078;12.878;2024-01-07T23:17:00;1.30;;;0.90;;
44078;SDS011;29744;49.078;12.878;2024-01-07T23:22:00;1.35;;;0.85;;
44078;SDS011;29744;49.078;12.878;2024-01-07T23:27:00;1.65;;;0.90;;
44078;SDS011;29744;49.078;12.878;2024-01-07T23:32:00;1.40;;;0.90;;
44078;SDS011;29744;49.078;12.878;2024-01-07T23:37:01;0.85;;;0.60;;
44078;SDS011;29744;49.078;12.878;2024-01-07T23:42:01;1.25;;;0.77;;
44078;SDS011;29744;49.078;12.878;2024-01-07T23:47:02;1.45;;;1.00;;
44078;SDS011;29744;49.078;12.878;2024-01-07T23:52:02;0.98;;;0.70;;
44078;SDS011;29744;49.078;12.878;2024-01-07T23:57:03;0.90;;;0.70;;
